createdAt,value
2023-05-24T00:01:07.230Z,2.20
2023-05-24T00:03:35.363Z,0.73
2023-05-24T00:06:03.112Z,0.60
2023-05-24T00:08:30.378Z,0.80
2023-05-24T00:10:57.903Z,0.70
2023-05-24T00:13:25.515Z,1.73
2023-05-24T00:15:53.157Z,2.30
2023-05-24T00:18:20.445Z,2.50
2023-05-24T00:20:48.226Z,2.23
2023-05-24T00:23:15.939Z,2.50
2023-05-24T00:25:43.335Z,1.83
2023-05-24T00:28:10.770Z,2.37
2023-05-24T00:30:38.090Z,0.97
2023-05-24T00:33:06.102Z,0.60
2023-05-24T00:35:34.448Z,0.80
2023-05-24T00:38:01.796Z,0.60
2023-05-24T00:40:29.166Z,0.80
2023-05-24T00:42:56.413Z,0.90
2023-05-24T00:45:23.693Z,2.10
2023-05-24T00:47:51.101Z,2.30
2023-05-24T00:50:18.591Z,2.20
2023-05-24T00:52:45.985Z,2.20
2023-05-24T00:55:13.401Z,2.03
2023-05-24T00:57:41.375Z,2.63
2023-05-24T01:00:09.975Z,1.00
2023-05-24T01:02:38.137Z,0.80
2023-05-24T01:05:06.767Z,0.67
2023-05-24T01:07:43.097Z,0.60
2023-05-24T01:10:18.089Z,1.73
2023-05-24T01:13:34.812Z,2.83
2023-05-24T01:16:37.713Z,0.60
2023-05-24T01:19:32.585Z,0.60
2023-05-24T01:23:02.128Z,0.80
2023-05-24T01:26:01.944Z,0.80
2023-05-24T01:28:29.538Z,0.90
2023-05-24T01:30:56.949Z,1.00
2023-05-24T01:33:24.793Z,2.10
2023-05-24T01:35:52.261Z,2.20
2023-05-24T01:38:19.924Z,2.60
2023-05-24T01:40:51.071Z,3.50
2023-05-24T01:43:40.776Z,2.30
2023-05-24T01:46:17.507Z,2.50
2023-05-24T01:48:57.052Z,2.60
2023-05-24T01:51:26.727Z,2.57
2023-05-24T01:53:55.980Z,1.80
2023-05-24T01:56:23.398Z,2.47
2023-05-24T01:58:53.026Z,2.40
2023-05-24T02:01:20.600Z,2.40
2023-05-24T02:03:48.568Z,2.20
2023-05-24T02:06:15.800Z,2.60
2023-05-24T02:08:43.115Z,1.83
2023-05-24T02:11:10.591Z,1.30
2023-05-24T02:13:37.983Z,1.00
2023-05-24T02:16:05.820Z,0.60
2023-05-24T02:18:35.444Z,0.90
2023-05-24T02:21:03.114Z,0.70
2023-05-24T02:23:30.670Z,0.70
2023-05-24T02:25:58.055Z,0.70
2023-05-24T02:28:25.462Z,1.23
2023-05-24T02:30:53.012Z,2.50
2023-05-24T02:33:21.538Z,2.53
2023-05-24T02:35:49.140Z,2.43
2023-05-24T02:38:16.551Z,2.60
2023-05-24T02:40:43.904Z,2.77
2023-05-24T02:43:11.426Z,1.77
2023-05-24T02:45:38.924Z,2.40
2023-05-24T02:48:06.584Z,1.50
2023-05-24T02:50:34.643Z,0.83
2023-05-24T02:53:02.212Z,0.60
2023-05-24T02:55:29.541Z,0.60
2023-05-24T02:57:57.187Z,0.87
2023-05-24T03:00:24.625Z,2.13
2023-05-24T03:02:52.936Z,2.40
2023-05-24T03:05:20.420Z,2.70
2023-05-24T03:07:47.752Z,2.70
2023-05-24T03:10:15.919Z,2.40
2023-05-24T03:12:43.529Z,1.73
2023-05-24T03:15:11.836Z,2.20
2023-05-24T03:17:39.258Z,1.50
2023-05-24T03:20:07.647Z,0.60
2023-05-24T03:22:35.412Z,0.90
2023-05-24T03:25:02.755Z,0.60
2023-05-24T03:27:30.192Z,1.20
2023-05-24T03:29:57.565Z,0.80
2023-05-24T03:32:24.989Z,2.03
2023-05-24T03:34:53.322Z,2.60
2023-05-24T03:37:20.628Z,2.40
2023-05-24T03:39:48.050Z,2.97
2023-05-24T03:42:15.508Z,2.17
2023-05-24T03:44:44.122Z,1.90
2023-05-24T03:47:11.536Z,2.00
2023-05-24T03:49:38.987Z,1.40
2023-05-24T03:52:06.948Z,0.70
2023-05-24T03:54:34.565Z,0.93
2023-05-24T03:57:02.925Z,0.60
2023-05-24T03:59:31.256Z,0.80
2023-05-24T04:01:58.661Z,0.73
2023-05-24T04:04:26.141Z,1.63
2023-05-24T04:06:54.229Z,2.77
2023-05-24T04:09:23.226Z,2.40
2023-05-24T04:11:50.653Z,2.50
2023-05-24T04:14:18.109Z,3.17
2023-05-24T04:16:45.769Z,2.40
2023-05-24T04:19:13.461Z,1.63
2023-05-24T04:21:41.074Z,2.20
2023-05-24T04:24:08.722Z,1.00
2023-05-24T04:26:38.014Z,0.80
2023-05-24T04:29:06.028Z,0.63
2023-05-24T04:31:34.744Z,0.80
2023-05-24T04:34:03.102Z,0.70
2023-05-24T04:36:31.935Z,0.80
2023-05-24T04:39:03.195Z,0.70
2023-05-24T04:41:32.826Z,0.70
2023-05-24T04:44:00.260Z,0.77
2023-05-24T04:46:28.277Z,0.70
2023-05-24T04:48:56.055Z,1.50
2023-05-24T04:51:24.069Z,2.53
2023-05-24T04:53:51.455Z,2.50
2023-05-24T04:56:19.926Z,2.60
2023-05-24T04:58:48.086Z,3.53
2023-05-24T05:01:15.554Z,2.40
2023-05-24T05:03:45.467Z,1.83
2023-05-24T05:06:12.987Z,2.03
2023-05-24T05:08:40.274Z,1.37
2023-05-24T05:11:07.930Z,0.80
2023-05-24T05:13:35.535Z,0.70
2023-05-24T05:16:03.650Z,0.70
2023-05-24T05:18:31.440Z,0.60
2023-05-24T05:20:58.746Z,0.80
2023-05-24T05:23:26.009Z,1.90
2023-05-24T05:25:53.834Z,2.40
2023-05-24T05:28:21.729Z,2.60
2023-05-24T05:30:49.356Z,2.30
2023-05-24T05:33:16.693Z,2.73
2023-05-24T05:35:43.953Z,3.13
2023-05-24T05:38:11.476Z,2.50
2023-05-24T05:40:38.841Z,1.17
2023-05-24T05:43:08.535Z,0.60
2023-05-24T05:45:36.339Z,0.70
2023-05-24T05:48:03.850Z,0.70
2023-05-24T05:50:31.272Z,0.63
2023-05-24T05:52:58.910Z,0.80
2023-05-24T05:55:26.362Z,1.33
2023-05-24T05:57:53.827Z,2.67
2023-05-24T06:00:22.882Z,2.30
2023-05-24T06:02:50.437Z,2.20
2023-05-24T06:05:19.312Z,3.10
2023-05-24T06:07:47.467Z,2.70
2023-05-24T06:10:14.817Z,2.63
2023-05-24T06:12:42.059Z,1.83
2023-05-24T06:15:09.925Z,1.23
2023-05-24T06:17:37.778Z,0.60
2023-05-24T06:20:16.095Z,0.70
2023-05-24T06:22:44.026Z,2.30
2023-05-24T06:25:15.725Z,2.80
2023-05-24T06:27:43.115Z,3.23
2023-05-24T06:30:10.968Z,1.20
2023-05-24T06:32:38.587Z,1.00
2023-05-24T06:35:06.707Z,0.70
2023-05-24T06:37:35.129Z,1.17
2023-05-24T06:40:02.616Z,0.70
2023-05-24T06:42:30.015Z,0.80
2023-05-24T06:44:57.268Z,0.93
2023-05-24T06:47:24.631Z,2.13
2023-05-24T06:49:52.083Z,2.50
2023-05-24T06:52:19.426Z,2.93
2023-05-24T06:54:46.808Z,2.83
2023-05-24T06:57:14.466Z,2.93
2023-05-24T06:59:42.172Z,2.10
2023-05-24T07:02:09.667Z,0.80
2023-05-24T07:04:37.273Z,0.70
2023-05-24T07:07:05.481Z,0.70
2023-05-24T07:09:33.030Z,0.70
2023-05-24T07:12:00.504Z,0.80
2023-05-24T07:14:28.744Z,0.70
2023-05-24T07:16:57.874Z,1.37
2023-05-24T07:19:29.880Z,1.87
2023-05-24T07:21:57.754Z,0.80
2023-05-24T07:24:25.332Z,2.03
2023-05-24T07:26:53.993Z,2.40
2023-05-24T07:29:22.171Z,2.40
2023-05-24T07:31:49.853Z,2.53
2023-05-24T07:34:17.282Z,2.57
2023-05-24T07:36:45.881Z,3.20
2023-05-24T07:39:16.035Z,1.80
2023-05-24T07:41:43.344Z,1.63
2023-05-24T07:44:10.963Z,3.63
2023-05-24T07:46:38.662Z,0.90
2023-05-24T07:49:06.612Z,0.60
2023-05-24T07:51:34.407Z,0.70
2023-05-24T07:54:01.813Z,0.57
2023-05-24T07:56:29.583Z,1.00
2023-05-24T07:59:05.727Z,1.00
2023-05-24T08:01:35.210Z,3.53
2023-05-24T08:04:06.554Z,0.60
2023-05-24T08:06:35.596Z,0.70
2023-05-24T08:09:07.908Z,0.70
2023-05-24T08:11:35.911Z,0.70
2023-05-24T08:14:03.967Z,0.70
2023-05-24T08:16:32.484Z,0.60
2023-05-24T08:18:59.865Z,0.70
2023-05-24T08:21:29.212Z,0.97
2023-05-24T08:23:57.502Z,1.27
2023-05-24T08:26:25.114Z,2.10
2023-05-24T08:28:53.070Z,2.30
2023-05-24T08:31:20.498Z,1.90
2023-05-24T08:33:50.749Z,2.30
2023-05-24T08:36:18.787Z,2.80
2023-05-24T08:38:46.322Z,2.40
2023-05-24T08:41:14.271Z,1.37
2023-05-24T08:43:43.609Z,1.80
2023-05-24T08:46:12.966Z,1.17
2023-05-24T08:48:47.481Z,1.00
2023-05-24T08:51:16.668Z,2.93
2023-05-24T08:53:49.358Z,3.27
2023-05-24T08:56:18.838Z,2.40
2023-05-24T08:58:47.667Z,1.93
2023-05-24T09:01:15.842Z,2.53
2023-05-24T09:03:44.560Z,1.47
2023-05-24T09:06:12.450Z,2.10
2023-05-24T09:08:43.045Z,0.90
2023-05-24T09:11:11.667Z,1.37
2023-05-24T09:13:39.211Z,1.07
2023-05-24T09:16:06.987Z,0.60
2023-05-24T09:18:34.406Z,0.63
2023-05-24T09:21:01.632Z,0.87
2023-05-24T09:23:29.122Z,0.70
2023-05-24T09:25:56.526Z,1.37
2023-05-24T09:28:25.288Z,2.00
2023-05-24T09:31:03.956Z,1.80
2023-05-24T09:33:34.177Z,0.70
2023-05-24T09:36:03.382Z,0.50
2023-05-24T09:38:30.871Z,0.50
2023-05-24T09:41:07.139Z,0.60
2023-05-24T09:43:36.350Z,0.70
2023-05-24T09:46:05.092Z,0.63
2023-05-24T09:48:33.262Z,0.60
2023-05-24T09:51:05.968Z,0.60
2023-05-24T09:53:35.091Z,0.60
2023-05-24T09:56:06.185Z,0.50
2023-05-24T09:58:34.173Z,0.60
2023-05-24T10:01:09.415Z,0.50
2023-05-24T10:03:38.335Z,0.70
2023-05-24T10:06:12.309Z,0.50
2023-05-24T10:08:40.281Z,0.90
2023-05-24T10:11:07.896Z,0.50
2023-05-24T10:13:37.565Z,0.50
2023-05-24T10:16:05.319Z,0.57
2023-05-24T10:18:33.348Z,0.70
2023-05-24T10:21:02.186Z,0.60
2023-05-24T10:23:31.602Z,0.50
2023-05-24T10:26:10.112Z,0.70
2023-05-24T10:29:02.271Z,0.90
2023-05-24T10:31:33.573Z,0.50
2023-05-24T10:34:08.238Z,0.60
2023-05-24T10:36:37.377Z,0.60
2023-05-24T10:39:06.010Z,0.60
2023-05-24T10:41:41.259Z,0.50
2023-05-24T10:44:13.989Z,0.80
2023-05-24T10:47:13.384Z,1.10
2023-05-24T10:49:59.632Z,2.47
2023-05-24T10:52:37.502Z,0.93
2023-05-24T10:55:08.769Z,0.60
2023-05-24T10:57:37.356Z,0.50
2023-05-24T11:03:02.865Z,0.60
2023-05-24T11:05:55.050Z,0.60
2023-05-24T11:08:36.476Z,1.53
2023-05-24T11:11:26.793Z,0.50
2023-05-24T11:13:58.952Z,1.37
2023-05-24T11:16:39.226Z,0.90
2023-05-24T11:19:29.926Z,0.50
2023-05-24T11:22:01.714Z,0.80
2023-05-24T11:24:29.886Z,0.50
2023-05-24T11:26:58.365Z,0.83
2023-05-24T11:29:26.239Z,1.20
2023-05-24T11:31:57.884Z,1.80
2023-05-24T11:34:27.667Z,1.23
2023-05-24T11:36:55.681Z,1.53
2023-05-24T11:39:23.991Z,1.67
2023-05-24T11:41:52.926Z,1.80
2023-05-24T11:44:20.465Z,1.57
2023-05-24T11:46:48.016Z,1.47
2023-05-24T11:49:17.154Z,1.63
2023-05-24T11:51:44.486Z,1.20
2023-05-24T11:54:12.152Z,1.60
2023-05-24T11:56:40.305Z,0.77
2023-05-24T11:59:25.555Z,0.50
2023-05-24T12:02:03.261Z,1.50
2023-05-24T12:04:32.810Z,0.50
2023-05-24T12:07:00.459Z,0.60
2023-05-24T12:09:28.810Z,0.60
2023-05-24T12:11:58.023Z,0.87
2023-05-24T12:14:31.371Z,1.13
2023-05-24T12:17:01.214Z,0.60
2023-05-24T12:19:37.231Z,0.50
2023-05-24T12:22:09.472Z,0.50
2023-05-24T12:24:38.696Z,0.73
2023-05-24T12:27:10.415Z,0.50
2023-05-24T12:29:42.760Z,0.50
2023-05-24T12:32:14.628Z,0.60
2023-05-24T12:34:44.218Z,0.93
2023-05-24T12:37:13.599Z,1.00
2023-05-24T12:39:43.818Z,0.80
2023-05-24T12:42:15.331Z,1.00
2023-05-24T12:44:43.178Z,1.00
2023-05-24T12:47:10.670Z,0.70
2023-05-24T12:49:38.791Z,0.53
2023-05-24T12:52:07.040Z,0.50
2023-05-24T12:54:35.267Z,3.80
2023-05-24T12:57:03.935Z,0.60
2023-05-24T12:59:31.565Z,0.50
2023-05-24T13:01:59.039Z,0.60
2023-05-24T13:04:27.822Z,1.07
2023-05-24T13:06:55.402Z,1.53
2023-05-24T13:09:24.107Z,1.80
2023-05-24T13:11:53.004Z,1.47
2023-05-24T13:14:20.792Z,1.37
2023-05-24T13:16:49.070Z,1.90
2023-05-24T13:19:17.584Z,1.50
2023-05-24T13:21:45.522Z,1.57
2023-05-24T13:24:16.560Z,1.50
2023-05-24T13:26:45.159Z,1.10
2023-05-24T13:31:43.844Z,1.00
2023-05-24T13:34:11.638Z,0.73
2023-05-24T13:36:39.613Z,0.70
2023-05-24T13:41:41.858Z,0.87
2023-05-24T13:44:10.463Z,0.70
2023-05-24T13:46:38.916Z,0.50
2023-05-24T13:49:07.701Z,0.50
2023-05-24T13:51:35.458Z,0.60
2023-05-24T13:54:03.531Z,0.57
2023-05-24T13:56:34.558Z,2.10
2023-05-24T13:59:03.367Z,0.60
2023-05-24T14:01:31.460Z,0.50
2023-05-24T14:04:00.673Z,0.50
2023-05-24T14:06:28.273Z,0.70
2023-05-24T14:08:55.821Z,1.17
2023-05-24T14:11:25.204Z,1.23
2023-05-24T14:16:35.344Z,0.73
2023-05-24T14:19:02.898Z,0.50
2023-05-24T14:21:31.520Z,0.50
2023-05-24T14:23:59.200Z,0.60
2023-05-24T14:26:27.436Z,0.90
2023-05-24T14:28:56.680Z,1.13
2023-05-24T14:31:24.862Z,1.27
2023-05-24T14:33:52.353Z,1.37
2023-05-24T14:36:19.933Z,1.23
2023-05-24T14:38:47.415Z,1.23
2023-05-24T14:41:15.766Z,1.43
2023-05-24T14:43:43.151Z,1.77
2023-05-24T14:46:10.507Z,0.70
2023-05-24T14:48:38.262Z,0.50
2023-05-24T14:51:06.168Z,0.60
2023-05-24T14:53:33.918Z,0.50
2023-05-24T14:56:01.686Z,0.70
2023-05-24T14:58:29.263Z,0.60
2023-05-24T15:00:56.858Z,1.30
2023-05-24T15:03:24.186Z,2.10
2023-05-24T15:05:52.570Z,1.37
2023-05-24T15:08:20.270Z,1.33
2023-05-24T15:10:47.623Z,1.27
2023-05-24T15:13:15.219Z,1.23
2023-05-24T15:15:43.049Z,1.20
2023-05-24T15:18:10.839Z,1.03
2023-05-24T15:20:38.918Z,3.70
2023-05-24T15:23:06.995Z,0.50
2023-05-24T15:25:35.496Z,0.60
2023-05-24T15:28:03.547Z,0.50
2023-05-24T15:30:31.001Z,0.50
2023-05-24T15:32:58.795Z,0.63
2023-05-24T15:35:27.051Z,1.43
2023-05-24T15:37:54.527Z,1.40
2023-05-24T15:40:24.605Z,1.43
2023-05-24T15:42:53.304Z,1.33
2023-05-24T15:45:21.196Z,1.70
2023-05-24T15:47:48.562Z,2.30
2023-05-24T15:50:16.654Z,1.43
2023-05-24T15:52:44.160Z,1.10
2023-05-24T15:55:11.848Z,0.83
2023-05-24T15:57:39.072Z,0.67
2023-05-24T16:00:07.197Z,0.70
2023-05-24T16:02:34.692Z,0.60
2023-05-24T16:05:02.355Z,0.80
2023-05-24T16:07:29.980Z,0.50
2023-05-24T16:09:57.843Z,0.80
2023-05-24T16:12:26.214Z,1.47
2023-05-24T16:14:53.656Z,1.73
2023-05-24T16:17:21.224Z,1.40
2023-05-24T16:19:49.829Z,1.90
2023-05-24T16:22:17.649Z,2.00
2023-05-24T16:24:45.313Z,1.83
2023-05-24T16:27:13.131Z,1.53
2023-05-24T16:29:41.074Z,0.80
2023-05-24T16:32:09.225Z,0.70
2023-05-24T16:34:52.130Z,0.50
2023-05-24T16:37:23.527Z,1.47
2023-05-24T16:39:51.893Z,1.57
2023-05-24T16:42:19.257Z,1.90
2023-05-24T16:44:46.701Z,1.50
2023-05-24T16:47:14.050Z,1.73
2023-05-24T16:49:41.390Z,1.13
2023-05-24T16:52:08.760Z,1.83
2023-05-24T16:54:36.713Z,0.60
2023-05-24T16:57:04.122Z,0.70
2023-05-24T16:59:31.576Z,0.60
2023-05-24T17:01:59.356Z,0.60
2023-05-24T17:04:26.867Z,1.20
2023-05-24T17:06:54.342Z,1.77
2023-05-24T17:09:21.855Z,1.93
2023-05-24T17:11:50.840Z,2.03
2023-05-24T17:14:18.866Z,2.30
2023-05-24T17:16:46.200Z,1.87
2023-05-24T17:19:14.457Z,1.30
2023-05-24T17:21:42.687Z,1.20
2023-05-24T17:24:10.407Z,0.80
2023-05-24T17:26:40.040Z,0.60
2023-05-24T17:29:07.663Z,0.80
2023-05-24T17:31:36.837Z,0.57
2023-05-24T17:34:04.483Z,0.60
2023-05-24T17:36:33.900Z,0.60
2023-05-24T17:39:01.586Z,0.60
2023-05-24T17:41:29.279Z,0.60
2023-05-24T17:43:56.638Z,1.37
2023-05-24T17:46:24.294Z,2.10
2023-05-24T17:48:52.226Z,2.03
2023-05-24T17:51:19.918Z,2.10
2023-05-24T17:53:48.220Z,1.90
2023-05-24T17:56:15.979Z,2.37
2023-05-24T17:58:45.516Z,2.37
2023-05-24T18:01:15.509Z,2.10
2023-05-24T18:03:43.195Z,1.70
2023-05-24T18:06:10.677Z,1.00
2023-05-24T18:08:43.903Z,0.60
2023-05-24T18:11:13.641Z,1.80
2023-05-24T18:13:42.500Z,1.10
2023-05-24T18:16:13.240Z,1.27
2023-05-24T18:18:41.210Z,0.80
2023-05-24T18:21:10.027Z,0.87
2023-05-24T18:23:40.440Z,0.60
2023-05-24T18:26:09.256Z,0.93
2023-05-24T18:28:41.787Z,0.60
2023-05-24T18:31:15.030Z,1.17
2023-05-24T18:33:42.757Z,1.90
2023-05-24T18:36:10.004Z,1.00
2023-05-24T18:38:40.180Z,0.50
2023-05-24T18:41:12.469Z,0.70
2023-05-24T18:43:40.184Z,1.30
2023-05-24T18:46:07.854Z,0.70
2023-05-24T18:48:35.632Z,0.60
2023-05-24T18:51:03.248Z,0.77
2023-05-24T18:53:30.972Z,0.60
2023-05-24T18:55:58.617Z,0.90
2023-05-24T18:58:26.315Z,2.03
2023-05-24T19:00:53.750Z,2.20
2023-05-24T19:03:22.339Z,2.30
2023-05-24T19:05:50.252Z,2.20
2023-05-24T19:08:18.651Z,2.87
2023-05-24T19:10:46.716Z,2.67
2023-05-24T19:13:15.001Z,2.10
2023-05-24T19:15:42.678Z,1.97
2023-05-24T19:18:10.551Z,1.17
2023-05-24T19:20:38.450Z,0.60
2023-05-24T19:23:06.240Z,0.70
2023-05-24T19:25:41.658Z,0.60
2023-05-24T19:28:10.859Z,0.97
2023-05-24T19:30:38.918Z,0.77
2023-05-24T19:33:07.832Z,0.60
2023-05-24T19:35:37.324Z,2.70
2023-05-24T19:38:05.663Z,0.67
2023-05-24T19:40:33.336Z,0.60
2023-05-24T19:43:01.113Z,0.70
2023-05-24T19:45:28.386Z,1.00
2023-05-24T19:47:56.085Z,4.30
2023-05-24T19:50:23.785Z,2.60
2023-05-24T19:52:51.633Z,2.77
2023-05-24T19:55:19.256Z,3.20
2023-05-24T19:57:46.446Z,2.83
2023-05-24T20:00:14.565Z,2.00
2023-05-24T20:02:41.955Z,1.17
2023-05-24T20:05:09.626Z,1.50
2023-05-24T20:07:37.471Z,0.60
2023-05-24T20:10:06.143Z,0.70
2023-05-24T20:12:35.735Z,0.90
2023-05-24T20:15:03.529Z,0.60
2023-05-24T20:17:30.860Z,0.80
2023-05-24T20:19:58.224Z,1.17
2023-05-24T20:22:25.473Z,2.40
2023-05-24T20:24:52.705Z,2.67
2023-05-24T20:27:20.017Z,2.97
2023-05-24T20:29:48.092Z,3.33
2023-05-24T20:32:16.803Z,3.53
2023-05-24T20:34:44.072Z,2.43
2023-05-24T20:37:11.608Z,1.17
2023-05-24T20:39:39.115Z,0.80
2023-05-24T20:42:08.148Z,0.60
2023-05-24T20:44:35.940Z,0.63
2023-05-24T20:47:03.756Z,0.60
2023-05-24T20:49:31.320Z,0.70
2023-05-24T20:51:58.802Z,0.80
2023-05-24T20:54:26.344Z,2.10
2023-05-24T20:56:53.968Z,2.30
2023-05-24T20:59:21.285Z,2.57
2023-05-24T21:01:49.180Z,2.60
2023-05-24T21:04:16.663Z,2.97
2023-05-24T21:06:44.239Z,2.77
2023-05-24T21:09:12.134Z,1.40
2023-05-24T21:11:39.801Z,0.97
2023-05-24T21:14:07.305Z,0.60
2023-05-24T21:16:35.009Z,0.60
2023-05-24T21:19:02.732Z,0.60
2023-05-24T21:21:30.050Z,0.70
2023-05-24T21:23:58.020Z,1.50
2023-05-24T21:26:25.293Z,2.50
2023-05-24T21:28:52.676Z,2.50
2023-05-24T21:31:21.075Z,2.67
2023-05-24T21:33:48.939Z,4.77
2023-05-24T21:36:16.368Z,3.23
2023-05-24T21:38:43.946Z,1.70
2023-05-24T21:41:11.506Z,1.10
2023-05-24T21:43:43.094Z,1.87
2023-05-24T21:46:10.446Z,1.07
2023-05-24T21:48:38.280Z,1.47
2023-05-24T21:51:06.762Z,0.60
2023-05-24T21:53:35.507Z,2.50
2023-05-24T21:56:03.412Z,0.60
2023-05-24T21:58:31.273Z,0.60
2023-05-24T22:00:58.573Z,2.17
2023-05-24T22:03:26.457Z,2.53
2023-05-24T22:05:53.823Z,2.60
2023-05-24T22:08:21.096Z,3.03
2023-05-24T22:10:48.400Z,3.37
2023-05-24T22:13:15.675Z,3.03
2023-05-24T22:15:43.294Z,2.60
2023-05-24T22:18:10.860Z,1.17
2023-05-24T22:20:38.693Z,0.70
2023-05-24T22:23:06.398Z,0.77
2023-05-24T22:25:34.384Z,0.60
2023-05-24T22:28:01.939Z,1.00
2023-05-24T22:30:30.956Z,0.80
2023-05-24T22:32:58.556Z,1.23
2023-05-24T22:35:26.404Z,2.10
2023-05-24T22:37:53.668Z,2.60
2023-05-24T22:40:21.131Z,3.33
2023-05-24T22:42:48.793Z,3.60
2023-05-24T22:45:17.216Z,3.83
2023-05-24T22:47:44.940Z,2.30
2023-05-24T22:50:12.548Z,1.80
2023-05-24T22:52:42.975Z,1.07
2023-05-24T22:55:13.872Z,2.50
2023-05-24T22:57:42.061Z,1.33
2023-05-24T23:00:10.000Z,0.90
2023-05-24T23:02:38.341Z,0.97
2023-05-24T23:05:06.779Z,2.03
2023-05-24T23:07:34.375Z,0.80
2023-05-24T23:10:01.594Z,0.70
2023-05-24T23:12:29.368Z,1.30
2023-05-24T23:14:58.656Z,2.10
2023-05-24T23:17:26.631Z,3.13
2023-05-24T23:19:54.271Z,3.10
2023-05-24T23:22:24.052Z,3.23
2023-05-24T23:24:52.766Z,2.93
2023-05-24T23:27:20.527Z,3.53
2023-05-24T23:29:47.972Z,2.73
2023-05-24T23:32:16.072Z,2.83
2023-05-24T23:34:43.994Z,2.80
2023-05-24T23:37:11.508Z,1.10
2023-05-24T23:39:39.992Z,0.70
2023-05-24T23:42:07.915Z,0.77
2023-05-24T23:44:37.076Z,0.60
2023-05-24T23:47:04.798Z,0.70
2023-05-24T23:49:32.274Z,0.80
2023-05-24T23:51:59.846Z,0.80
2023-05-24T23:54:27.240Z,2.20
2023-05-24T23:56:54.605Z,3.10
2023-05-24T23:59:22.870Z,2.93
